Time;durP1;ratioP1;P1;durP2;ratioP2;P2;SDS_P1;SDS_P2;PMS_P1;PMS_P2;Temp;Humidity;BMP_temperature;BMP_pressure;BME280_temperature;BME280_humidity;BME280_pressure;Samples;Min_cycle;Max_cycle;Signal;HPM_P1;HPM_P2
2023/09/22 00:01:30;;;;;;;3.88;1.70;;;;;;;;;;4987892;28;94857;-83
2023/09/22 00:03:57;;;;;;;4.13;1.80;;;;;;;;;;4989278;28;95025;-83
2023/09/22 00:06:24;;;;;;;3.72;2.05;;;;;;;;;;4967564;28;96731;-83
2023/09/22 00:08:50;;;;;;;4.03;2.00;;;;;;;;;;4987328;28;92510;-83
2023/09/22 00:11:17;;;;;;;4.25;1.80;;;;;;;;;;4986919;28;95468;-83
2023/09/22 00:13:43;;;;;;;4.43;1.95;;;;;;;;;;4985740;28;94492;-83
2023/09/22 00:16:10;;;;;;;5.45;1.98;;;;;;;;;;4989446;28;92826;-82
2023/09/22 00:18:37;;;;;;;4.43;2.00;;;;;;;;;;4989962;28;91761;-83
2023/09/22 00:21:04;;;;;;;4.75;2.00;;;;;;;;;;4968602;28;93085;-83
2023/09/22 00:23:31;;;;;;;6.00;2.55;;;;;;;;;;4984322;28;92954;-83
2023/09/22 00:25:58;;;;;;;6.30;2.47;;;;;;;;;;4991979;28;95385;-82
2023/09/22 00:28:24;;;;;;;6.13;2.35;;;;;;;;;;4993684;28;92324;-82
2023/09/22 00:30:51;;;;;;;6.00;2.50;;;;;;;;;;4997735;28;92468;-82
2023/09/22 00:33:18;;;;;;;6.10;2.47;;;;;;;;;;5002428;28;93226;-82
2023/09/22 00:35:45;;;;;;;6.97;2.45;;;;;;;;;;4992552;28;94384;-83
2023/09/22 00:38:11;;;;;;;5.95;2.33;;;;;;;;;;4992077;28;96226;-84
2023/09/22 00:40:38;;;;;;;5.07;2.25;;;;;;;;;;4990112;28;92372;-83
2023/09/22 00:43:05;;;;;;;6.57;2.75;;;;;;;;;;4997556;28;91660;-83
2023/09/22 00:45:32;;;;;;;6.85;2.90;;;;;;;;;;4988105;28;96195;-83
2023/09/22 00:47:58;;;;;;;5.40;2.30;;;;;;;;;;4988640;28;92415;-83
2023/09/22 00:50:25;;;;;;;4.95;2.20;;;;;;;;;;4991191;28;95136;-83
2023/09/22 00:52:52;;;;;;;6.90;2.40;;;;;;;;;;4992177;28;93214;-82
2023/09/22 00:55:19;;;;;;;5.22;2.20;;;;;;;;;;4989653;28;92412;-82
2023/09/22 00:57:45;;;;;;;7.82;2.30;;;;;;;;;;4981261;28;95646;-82
2023/09/22 01:00:12;;;;;;;5.43;2.33;;;;;;;;;;4986719;28;93387;-83
2023/09/22 01:02:39;;;;;;;5.47;2.20;;;;;;;;;;4980264;28;95675;-83
2023/09/22 01:05:08;;;;;;;6.28;2.42;;;;;;;;;;4991315;28;93230;-84
2023/09/22 01:07:35;;;;;;;5.25;2.33;;;;;;;;;;4992862;28;92535;-83
2023/09/22 01:10:08;;;;;;;6.05;2.20;;;;;;;;;;4973730;28;94952;-83
2023/09/22 01:12:35;;;;;;;6.15;2.40;;;;;;;;;;4991768;28;92986;-83
2023/09/22 01:15:05;;;;;;;5.97;3.00;;;;;;;;;;4991058;28;95304;-83
2023/09/22 01:17:31;;;;;;;7.78;3.20;;;;;;;;;;4994850;28;95243;-84
2023/09/22 01:19:59;;;;;;;7.25;2.90;;;;;;;;;;4989849;28;92521;-84
2023/09/22 01:22:25;;;;;;;7.35;2.80;;;;;;;;;;4989306;28;95752;-84
2023/09/22 01:24:52;;;;;;;6.80;2.90;;;;;;;;;;4990664;28;94119;-84
2023/09/22 01:27:18;;;;;;;7.90;3.45;;;;;;;;;;4991567;28;92484;-85
2023/09/22 01:29:45;;;;;;;7.13;3.17;;;;;;;;;;4977409;28;93326;-84
2023/09/22 01:32:11;;;;;;;8.02;3.45;;;;;;;;;;4991755;28;93001;-84
2023/09/22 01:34:38;;;;;;;7.82;3.38;;;;;;;;;;4990702;28;92482;-85
2023/09/22 01:37:07;;;;;;;7.72;3.47;;;;;;;;;;4994151;28;92708;-83
2023/09/22 01:39:34;;;;;;;8.25;3.60;;;;;;;;;;4989248;28;95030;-82
2023/09/22 01:42:01;;;;;;;9.23;3.30;;;;;;;;;;4989849;28;95278;-83
2023/09/22 01:44:29;;;;;;;8.15;3.65;;;;;;;;;;4992423;28;93329;-83
2023/09/22 01:46:56;;;;;;;7.18;3.38;;;;;;;;;;5000379;28;92488;-83
2023/09/22 01:49:22;;;;;;;9.48;4.15;;;;;;;;;;4990976;28;93699;-82
2023/09/22 01:51:49;;;;;;;7.82;3.88;;;;;;;;;;4990694;28;93253;-83
2023/09/22 01:54:15;;;;;;;7.65;3.92;;;;;;;;;;4990126;28;92659;-84
2023/09/22 01:56:42;;;;;;;10.15;3.88;;;;;;;;;;4989746;28;92834;-83
2023/09/22 01:59:08;;;;;;;9.90;4.28;;;;;;;;;;4988163;28;96457;-83
2023/09/22 02:01:35;;;;;;;8.35;4.00;;;;;;;;;;4987131;28;94406;-84
2023/09/22 02:04:01;;;;;;;10.10;4.35;;;;;;;;;;4989233;28;96061;-83
2023/09/22 02:06:28;;;;;;;8.70;4.28;;;;;;;;;;4988739;28;92509;-84
2023/09/22 02:08:55;;;;;;;9.10;4.28;;;;;;;;;;4991101;28;92941;-84
2023/09/22 02:11:21;;;;;;;7.68;3.83;;;;;;;;;;4987481;28;96389;-83
2023/09/22 02:13:48;;;;;;;8.55;4.22;;;;;;;;;;4991030;28;92487;-84
2023/09/22 02:16:16;;;;;;;11.07;4.55;;;;;;;;;;4991401;28;94139;-84
2023/09/22 02:18:43;;;;;;;10.07;4.32;;;;;;;;;;4990495;28;93662;-84
2023/09/22 02:21:10;;;;;;;8.95;4.60;;;;;;;;;;4994555;28;91645;-83
2023/09/22 02:23:37;;;;;;;10.85;4.93;;;;;;;;;;4989099;28;96225;-84
2023/09/22 02:26:04;;;;;;;9.45;4.63;;;;;;;;;;4985505;28;92541;-83
2023/09/22 02:28:31;;;;;;;12.35;5.18;;;;;;;;;;4985272;28;94956;-83
2023/09/22 02:30:57;;;;;;;9.32;4.15;;;;;;;;;;4990270;28;93505;-83
2023/09/22 02:33:24;;;;;;;8.93;4.10;;;;;;;;;;4969122;28;92532;-82
2023/09/22 02:35:51;;;;;;;9.30;4.45;;;;;;;;;;4990602;28;93265;-82
2023/09/22 02:38:17;;;;;;;9.00;4.30;;;;;;;;;;4989704;28;93205;-82
2023/09/22 02:40:45;;;;;;;7.70;3.97;;;;;;;;;;4990429;28;92433;-82
2023/09/22 02:43:12;;;;;;;9.00;3.88;;;;;;;;;;4993070;28;92905;-82
2023/09/22 02:45:40;;;;;;;7.90;4.10;;;;;;;;;;4990970;28;93356;-84
2023/09/22 02:48:08;;;;;;;10.70;4.30;;;;;;;;;;4991531;28;92870;-83
2023/09/22 02:50:36;;;;;;;9.15;4.30;;;;;;;;;;4998744;28;93031;-81
2023/09/22 02:53:03;;;;;;;8.75;4.20;;;;;;;;;;4991895;28;94842;-82
2023/09/22 02:55:30;;;;;;;8.15;4.00;;;;;;;;;;4989338;28;97443;-82
2023/09/22 02:57:57;;;;;;;9.05;4.20;;;;;;;;;;4989919;28;93098;-83
2023/09/22 03:00:23;;;;;;;9.73;3.80;;;;;;;;;;4984692;28;92629;-83
2023/09/22 03:02:52;;;;;;;10.05;4.45;;;;;;;;;;4987458;28;92890;-83
2023/09/22 03:05:19;;;;;;;8.50;4.00;;;;;;;;;;4988096;28;96003;-83
2023/09/22 03:07:52;;;;;;;9.50;4.00;;;;;;;;;;4985276;28;95517;-84
2023/09/22 03:10:20;;;;;;;7.85;3.97;;;;;;;;;;4972002;28;95329;-84
2023/09/22 03:12:49;;;;;;;7.88;3.92;;;;;;;;;;4976060;28;92478;-83
2023/09/22 03:15:16;;;;;;;9.85;4.30;;;;;;;;;;4979897;28;92562;-83
2023/09/22 03:17:42;;;;;;;8.80;4.60;;;;;;;;;;4982165;28;95597;-83
2023/09/22 03:20:12;;;;;;;10.77;4.68;;;;;;;;;;4979515;28;92956;-83
2023/09/22 03:22:40;;;;;;;8.55;4.15;;;;;;;;;;4988128;28;94449;-83
2023/09/22 03:25:10;;;;;;;9.63;4.53;;;;;;;;;;4985015;28;94290;-83
2023/09/22 03:27:38;;;;;;;7.57;4.00;;;;;;;;;;4971123;28;93031;-82
2023/09/22 03:30:07;;;;;;;9.52;4.47;;;;;;;;;;4967415;28;94579;-82
2023/09/22 03:32:35;;;;;;;9.18;4.05;;;;;;;;;;4984608;28;92524;-82
2023/09/22 03:35:07;;;;;;;8.77;3.90;;;;;;;;;;4971641;28;95322;-84
2023/09/22 03:37:35;;;;;;;10.85;4.47;;;;;;;;;;4984602;28;95595;-84
2023/09/22 03:40:14;;;;;;;8.70;4.40;;;;;;;;;;4983401;28;92660;-83
2023/09/22 03:42:45;;;;;;;8.93;4.00;;;;;;;;;;4985909;28;95612;-83
2023/09/22 03:45:12;;;;;;;8.85;4.20;;;;;;;;;;4986795;28;95978;-83
2023/09/22 03:47:39;;;;;;;9.07;4.00;;;;;;;;;;4992355;28;92788;-83
2023/09/22 03:50:06;;;;;;;9.77;4.40;;;;;;;;;;4984526;28;95667;-83
2023/09/22 03:52:34;;;;;;;9.80;4.22;;;;;;;;;;4989330;28;92839;-83
2023/09/22 03:55:00;;;;;;;8.77;3.80;;;;;;;;;;4983879;28;95558;-83
2023/09/22 03:57:27;;;;;;;7.85;3.85;;;;;;;;;;4984265;28;92978;-82
2023/09/22 03:59:54;;;;;;;8.48;3.80;;;;;;;;;;4989449;28;92022;-83
2023/09/22 04:02:20;;;;;;;8.55;4.20;;;;;;;;;;4963084;28;93297;-83
2023/09/22 04:04:47;;;;;;;7.60;3.67;;;;;;;;;;4990193;28;92949;-83
2023/09/22 04:07:14;;;;;;;8.48;4.00;;;;;;;;;;4989263;28;94974;-83
2023/09/22 04:09:42;;;;;;;7.43;3.72;;;;;;;;;;4995200;28;95212;-83
2023/09/22 04:12:09;;;;;;;7.60;3.78;;;;;;;;;;4990675;28;92456;-83
2023/09/22 04:14:36;;;;;;;9.45;4.22;;;;;;;;;;4991963;28;92795;-83
2023/09/22 04:17:04;;;;;;;8.98;4.00;;;;;;;;;;4991951;28;93752;-83
2023/09/22 04:19:33;;;;;;;7.70;3.75;;;;;;;;;;4985920;28;92360;-84
2023/09/22 04:22:00;;;;;;;7.03;3.53;;;;;;;;;;4983805;28;92848;-84
2023/09/22 04:24:32;;;;;;;8.48;3.55;;;;;;;;;;4992437;28;92441;-84
2023/09/22 04:27:06;;;;;;;7.90;3.75;;;;;;;;;;4992589;28;92410;-83
2023/09/22 04:29:35;;;;;;;7.80;3.50;;;;;;;;;;4992376;28;92863;-83
2023/09/22 04:32:03;;;;;;;8.25;3.90;;;;;;;;;;4979956;28;95755;-82
2023/09/22 04:34:29;;;;;;;10.57;3.80;;;;;;;;;;4987538;28;97832;-83
2023/09/22 04:36:56;;;;;;;8.20;3.92;;;;;;;;;;4985698;28;94293;-83
2023/09/22 04:39:22;;;;;;;7.53;3.53;;;;;;;;;;4972644;28;92970;-82
2023/09/22 04:41:49;;;;;;;8.50;3.83;;;;;;;;;;4988804;28;92906;-83
2023/09/22 04:44:16;;;;;;;8.27;3.28;;;;;;;;;;4991477;28;93847;-83
2023/09/22 04:46:44;;;;;;;7.95;3.30;;;;;;;;;;4992057;28;93110;-83
2023/09/22 04:49:11;;;;;;;8.63;3.05;;;;;;;;;;4991967;28;92772;-82
2023/09/22 04:51:38;;;;;;;8.65;3.30;;;;;;;;;;4991610;28;93421;-82
2023/09/22 04:54:05;;;;;;;;;;;;;;;;;;4981271;28;92997;-83
2023/09/22 04:56:32;;;;;;;8.80;3.25;;;;;;;;;;4991473;28;115874;-83
2023/09/22 04:58:59;;;;;;;7.82;3.22;;;;;;;;;;4987585;28;92561;-82
2023/09/22 05:01:26;;;;;;;7.65;3.17;;;;;;;;;;4978191;28;92621;-82
2023/09/22 05:03:53;;;;;;;7.63;2.75;;;;;;;;;;4983706;28;93577;-83
2023/09/22 05:06:19;;;;;;;11.73;3.22;;;;;;;;;;4990519;28;92493;-83
2023/09/22 05:08:46;;;;;;;7.65;3.30;;;;;;;;;;4991567;28;92894;-83
2023/09/22 05:11:12;;;;;;;8.80;3.20;;;;;;;;;;5000819;28;92397;-82
2023/09/22 05:13:39;;;;;;;8.88;3.45;;;;;;;;;;4992535;28;91783;-82
2023/09/22 05:16:09;;;;;;;8.10;3.13;;;;;;;;;;4998231;28;92350;-83
2023/09/22 05:18:36;;;;;;;7.22;2.78;;;;;;;;;;5000035;28;92540;-82
2023/09/22 05:21:04;;;;;;;7.30;3.17;;;;;;;;;;4994627;28;94810;-82
2023/09/22 05:23:34;;;;;;;7.68;3.08;;;;;;;;;;4999700;28;92992;-83
2023/09/22 05:26:06;;;;;;;8.02;3.10;;;;;;;;;;4976586;28;92491;-83
2023/09/22 05:28:33;;;;;;;8.02;3.35;;;;;;;;;;4992533;28;92517;-84
2023/09/22 05:31:00;;;;;;;8.02;2.90;;;;;;;;;;4978200;28;93405;-82
2023/09/22 05:33:29;;;;;;;6.25;2.90;;;;;;;;;;4980759;28;92461;-83
2023/09/22 05:35:55;;;;;;;7.93;3.10;;;;;;;;;;4992802;28;92618;-83
2023/09/22 05:38:22;;;;;;;7.80;2.80;;;;;;;;;;4995828;28;92473;-83
2023/09/22 05:40:49;;;;;;;6.97;2.90;;;;;;;;;;4992089;28;92448;-83
2023/09/22 05:43:17;;;;;;;7.20;3.22;;;;;;;;;;4991690;28;93313;-83
2023/09/22 05:45:44;;;;;;;5.95;2.70;;;;;;;;;;4989619;28;94839;-84
2023/09/22 05:48:11;;;;;;;5.45;2.15;;;;;;;;;;4991179;28;95111;-84
2023/09/22 05:50:38;;;;;;;6.13;2.53;;;;;;;;;;4992644;28;93130;-85
2023/09/22 05:53:05;;;;;;;7.07;2.60;;;;;;;;;;4997389;28;92477;-86
2023/09/22 05:55:34;;;;;;;6.63;2.47;;;;;;;;;;4994227;28;93307;-84
2023/09/22 05:58:01;;;;;;;5.60;2.40;;;;;;;;;;4995173;28;93738;-84
2023/09/22 06:00:31;;;;;;;6.68;2.40;;;;;;;;;;4991414;28;92811;-84
2023/09/22 06:02:57;;;;;;;6.38;2.50;;;;;;;;;;4991019;28;91783;-83
2023/09/22 06:05:26;;;;;;;5.55;2.20;;;;;;;;;;4991362;28;92535;-84
2023/09/22 06:07:54;;;;;;;5.50;2.17;;;;;;;;;;4992054;28;93679;-85
2023/09/22 06:10:21;;;;;;;5.78;2.35;;;;;;;;;;4989274;28;95643;-84
2023/09/22 06:12:49;;;;;;;5.03;2.30;;;;;;;;;;4991066;28;93041;-83
2023/09/22 06:15:16;;;;;;;5.70;2.05;;;;;;;;;;4990108;28;94060;-82
2023/09/22 06:17:43;;;;;;;5.95;2.10;;;;;;;;;;4984894;28;93306;-82
2023/09/22 06:20:13;;;;;;;6.72;2.20;;;;;;;;;;4987022;28;92511;-82
2023/09/22 06:22:41;;;;;;;5.22;1.98;;;;;;;;;;4989595;28;93038;-82
2023/09/22 06:25:13;;;;;;;6.65;2.05;;;;;;;;;;4989495;28;92480;-82
2023/09/22 06:27:41;;;;;;;6.82;2.10;;;;;;;;;;4989662;28;94804;-82
2023/09/22 06:30:11;;;;;;;5.80;2.10;;;;;;;;;;4989461;28;93055;-82
2023/09/22 06:32:42;;;;;;;5.07;2.00;;;;;;;;;;4990358;28;92788;-83
2023/09/22 06:35:09;;;;;;;8.88;2.50;;;;;;;;;;4981427;28;96728;-83
2023/09/22 06:37:37;;;;;;;6.63;2.13;;;;;;;;;;4969342;28;93151;-82
2023/09/22 06:40:11;;;;;;;7.38;2.20;;;;;;;;;;4988086;28;92795;-83
2023/09/22 06:42:39;;;;;;;4.53;1.52;;;;;;;;;;4991107;28;92963;-82
2023/09/22 06:45:06;;;;;;;5.57;1.80;;;;;;;;;;4987826;28;92988;-86
2023/09/22 06:47:33;;;;;;;6.30;1.70;;;;;;;;;;4988930;28;94067;-83
2023/09/22 06:50:02;;;;;;;4.80;1.67;;;;;;;;;;4986498;28;94036;-82
2023/09/22 06:52:28;;;;;;;5.47;1.70;;;;;;;;;;4988224;28;92206;-82
2023/09/22 06:54:55;;;;;;;4.50;1.70;;;;;;;;;;4988993;28;92472;-81
2023/09/22 06:57:23;;;;;;;5.72;1.60;;;;;;;;;;4986808;28;95499;-81
2023/09/22 06:59:52;;;;;;;5.53;1.73;;;;;;;;;;4976906;28;95219;-81
2023/09/22 07:02:19;;;;;;;4.28;1.60;;;;;;;;;;4977866;28;95253;-81
2023/09/22 07:04:45;;;;;;;4.53;1.50;;;;;;;;;;4992262;28;96078;-80
2023/09/22 07:07:12;;;;;;;4.10;1.58;;;;;;;;;;4989999;28;92634;-82
2023/09/22 07:09:43;;;;;;;3.42;1.55;;;;;;;;;;4986910;28;94699;-79
2023/09/22 07:12:10;;;;;;;4.82;1.58;;;;;;;;;;4984707;28;93159;-80
2023/09/22 07:14:36;;;;;;;3.38;1.55;;;;;;;;;;4966555;28;93149;-80
2023/09/22 07:17:03;;;;;;;8.75;1.80;;;;;;;;;;4970968;28;93211;-80
2023/09/22 07:19:31;;;;;;;4.47;1.55;;;;;;;;;;4987120;28;92897;-80
2023/09/22 07:21:58;;;;;;;6.93;2.00;;;;;;;;;;4986384;28;95195;-81
2023/09/22 07:24:25;;;;;;;4.45;1.50;;;;;;;;;;4983558;28;95165;-81
2023/09/22 07:26:51;;;;;;;5.45;1.52;;;;;;;;;;4996795;28;92613;-81
2023/09/22 07:29:18;;;;;;;3.72;1.40;;;;;;;;;;4984381;28;93715;-81
2023/09/22 07:31:44;;;;;;;5.43;1.63;;;;;;;;;;4979441;28;92389;-81
2023/09/22 07:34:11;;;;;;;4.15;1.67;;;;;;;;;;4985105;28;92933;-81
2023/09/22 07:36:38;;;;;;;5.32;1.70;;;;;;;;;;4988702;28;92915;-81
2023/09/22 07:39:05;;;;;;;3.78;1.90;;;;;;;;;;4975252;28;93038;-82
2023/09/22 07:41:32;;;;;;;7.28;1.75;;;;;;;;;;4988430;28;93199;-81
2023/09/22 07:43:59;;;;;;;5.38;1.70;;;;;;;;;;4989415;28;94178;-82
2023/09/22 07:46:25;;;;;;;6.15;1.70;;;;;;;;;;4987011;28;92702;-82
2023/09/22 07:48:52;;;;;;;6.10;1.73;;;;;;;;;;4987821;28;94827;-82
2023/09/22 07:51:20;;;;;;;7.25;1.70;;;;;;;;;;4987030;28;94156;-82
2023/09/22 07:53:47;;;;;;;4.45;1.73;;;;;;;;;;4987204;28;92584;-82
2023/09/22 07:56:16;;;;;;;4.18;1.80;;;;;;;;;;4987523;28;92562;-82
2023/09/22 07:58:44;;;;;;;3.80;1.67;;;;;;;;;;4987427;28;92881;-82
2023/09/22 08:01:24;;;;;;;5.38;1.73;;;;;;;;;;4984128;28;95899;-83
2023/09/22 08:03:51;;;;;;;5.10;1.55;;;;;;;;;;4988645;28;93563;-83
2023/09/22 08:06:19;;;;;;;3.75;1.63;;;;;;;;;;4989225;28;91791;-82
2023/09/22 08:08:49;;;;;;;;;;;;;;;;;;4990368;28;92698;-82
2023/09/22 08:11:17;;;;;;;5.95;1.90;;;;;;;;;;4987912;28;113986;-82
2023/09/22 08:13:45;;;;;;;3.80;1.70;;;;;;;;;;4980964;28;95180;-82
2023/09/22 08:16:13;;;;;;;5.20;1.70;;;;;;;;;;4982789;28;93535;-82
2023/09/22 08:18:40;;;;;;;;;;;;;;;;;;4987748;28;92824;-82
2023/09/22 08:21:07;;;;;;;4.68;1.90;;;;;;;;;;4980003;28;121330;-82
2023/09/22 08:23:34;;;;;;;2.30;1.50;;;;;;;;;;4969782;28;94120;-81
2023/09/22 08:26:17;;;;;;;3.45;1.70;;;;;;;;;;4983124;28;92313;-82
2023/09/22 08:28:44;;;;;;;3.67;1.60;;;;;;;;;;4989042;28;93340;-82
2023/09/22 08:31:11;;;;;;;4.32;1.95;;;;;;;;;;4991577;28;92708;-83
2023/09/22 08:33:38;;;;;;;4.55;2.00;;;;;;;;;;4988322;28;93220;-83
2023/09/22 08:36:05;;;;;;;3.50;1.83;;;;;;;;;;4988615;28;93201;-82
2023/09/22 08:38:32;;;;;;;3.95;2.05;;;;;;;;;;4981567;28;95215;-82
2023/09/22 08:40:59;;;;;;;3.55;1.70;;;;;;;;;;4976602;28;98081;-82
2023/09/22 08:43:26;;;;;;;3.22;1.40;;;;;;;;;;4988787;28;93090;-83
2023/09/22 08:45:53;;;;;;;2.88;1.70;;;;;;;;;;4983756;28;92498;-80
2023/09/22 08:48:20;;;;;;;3.78;1.60;;;;;;;;;;4977489;28;93063;-81
2023/09/22 08:50:47;;;;;;;4.45;1.70;;;;;;;;;;4971415;28;93651;-82
2023/09/22 08:53:14;;;;;;;2.40;1.45;;;;;;;;;;4986945;28;92610;-81
2023/09/22 08:55:40;;;;;;;3.85;1.70;;;;;;;;;;4987912;28;92600;-81
2023/09/22 08:58:07;;;;;;;3.20;1.52;;;;;;;;;;4989063;28;92818;-82
2023/09/22 09:00:34;;;;;;;3.05;1.60;;;;;;;;;;4989523;28;92761;-83
2023/09/22 09:03:10;;;;;;;3.20;1.50;;;;;;;;;;4983273;28;95393;-83
2023/09/22 09:05:39;;;;;;;3.30;1.60;;;;;;;;;;4991365;28;92588;-84
2023/09/22 09:08:14;;;;;;;3.45;1.67;;;;;;;;;;4981493;28;92840;-83
2023/09/22 09:10:42;;;;;;;3.92;1.55;;;;;;;;;;4989372;28;93187;-83
2023/09/22 09:13:13;;;;;;;5.07;1.70;;;;;;;;;;4980967;28;92482;-83
2023/09/22 09:15:42;;;;;;;2.72;1.30;;;;;;;;;;4993397;28;92438;-83
2023/09/22 09:18:11;;;;;;;4.00;1.60;;;;;;;;;;4990797;28;94397;-83
2023/09/22 09:20:42;;;;;;;2.35;1.30;;;;;;;;;;4990756;28;92940;-83
2023/09/22 09:23:11;;;;;;;2.22;1.20;;;;;;;;;;4984906;28;96265;-83
2023/09/22 09:25:48;;;;;;;2.78;1.30;;;;;;;;;;4976594;28;93650;-83
2023/09/22 09:28:15;;;;;;;2.47;1.48;;;;;;;;;;4981326;28;95220;-83
2023/09/22 09:30:52;;;;;;;2.75;1.20;;;;;;;;;;4990745;28;93094;-83
2023/09/22 09:33:20;;;;;;;3.95;1.30;;;;;;;;;;4970547;28;95189;-83
2023/09/22 09:35:47;;;;;;;3.30;1.20;;;;;;;;;;4970738;28;92493;-82
2023/09/22 09:38:18;;;;;;;2.30;1.40;;;;;;;;;;4987879;28;96044;-82
2023/09/22 09:40:44;;;;;;;3.15;1.45;;;;;;;;;;4990464;28;93286;-81
2023/09/22 09:43:12;;;;;;;2.30;1.40;;;;;;;;;;4978911;28;93029;-82
2023/09/22 09:45:46;;;;;;;2.80;1.38;;;;;;;;;;4986303;28;91830;-82
2023/09/22 09:48:15;;;;;;;2.33;1.45;;;;;;;;;;4979015;28;92524;-82
2023/09/22 09:50:46;;;;;;;2.25;1.30;;;;;;;;;;4976205;28;93189;-82
2023/09/22 09:53:17;;;;;;;1.52;1.20;;;;;;;;;;4987009;28;94901;-82
2023/09/22 09:55:43;;;;;;;2.05;1.20;;;;;;;;;;4989900;28;95566;-82
2023/09/22 09:58:11;;;;;;;2.03;1.20;;;;;;;;;;4978415;28;93174;-84
2023/09/22 10:00:39;;;;;;;2.63;1.30;;;;;;;;;;4974782;28;92983;-84
2023/09/22 10:03:08;;;;;;;5.30;1.50;;;;;;;;;;4985365;28;93442;-85
2023/09/22 10:05:35;;;;;;;2.83;1.20;;;;;;;;;;4988093;28;92917;-84
2023/09/22 10:08:06;;;;;;;2.85;1.38;;;;;;;;;;4989994;28;92554;-84
2023/09/22 10:10:34;;;;;;;2.20;1.20;;;;;;;;;;4989607;28;92621;-85
2023/09/22 10:13:01;;;;;;;3.90;1.30;;;;;;;;;;4989708;28;92524;-86
2023/09/22 10:15:46;;;;;;;3.30;1.30;;;;;;;;;;4984120;28;94049;-85
2023/09/22 10:18:17;;;;;;;1.83;1.20;;;;;;;;;;4990013;28;95512;-86
2023/09/22 10:20:45;;;;;;;2.67;1.20;;;;;;;;;;4989202;28;92801;-85
2023/09/22 10:23:16;;;;;;;2.58;1.30;;;;;;;;;;4984868;28;94565;-85
2023/09/22 10:25:43;;;;;;;1.90;1.20;;;;;;;;;;4969522;28;92417;-82
2023/09/22 10:28:10;;;;;;;2.47;1.10;;;;;;;;;;4969622;28;92879;-83
2023/09/22 10:30:43;;;;;;;1.90;1.30;;;;;;;;;;4968778;28;93290;-83
2023/09/22 10:33:16;;;;;;;2.50;1.30;;;;;;;;;;4976523;28;92415;-83
2023/09/22 10:35:43;;;;;;;1.52;1.10;;;;;;;;;;4977977;28;93022;-83
2023/09/22 10:38:14;;;;;;;1.45;1.05;;;;;;;;;;4989756;28;93267;-84
2023/09/22 10:40:59;;;;;;;2.13;1.10;;;;;;;;;;4977204;28;92709;-83
2023/09/22 10:43:26;;;;;;;1.65;1.00;;;;;;;;;;4990658;28;95170;-84
2023/09/22 10:45:53;;;;;;;1.40;1.08;;;;;;;;;;4976157;28;92523;-84
2023/09/22 10:48:20;;;;;;;;;;;;;;;;;;4989853;28;92799;-83
2023/09/22 10:50:50;;;;;;;1.40;1.00;;;;;;;;;;4972735;28;120635;-83
2023/09/22 10:53:16;;;;;;;3.03;1.00;;;;;;;;;;4969144;28;93203;-83
2023/09/22 10:55:44;;;;;;;1.65;1.10;;;;;;;;;;4984999;28;92829;-83
2023/09/22 10:58:12;;;;;;;1.58;1.00;;;;;;;;;;4987092;28;93556;-83
2023/09/22 11:00:40;;;;;;;1.75;1.00;;;;;;;;;;4989139;28;91802;-84
2023/09/22 11:03:14;;;;;;;2.38;1.05;;;;;;;;;;4984310;28;92814;-83
2023/09/22 11:05:42;;;;;;;2.10;1.00;;;;;;;;;;4988603;28;93515;-83
2023/09/22 11:08:15;;;;;;;2.58;1.20;;;;;;;;;;4977417;28;94873;-84
2023/09/22 11:10:46;;;;;;;3.17;1.08;;;;;;;;;;4987183;28;93180;-84
2023/09/22 11:13:14;;;;;;;2.72;1.20;;;;;;;;;;4988263;28;92483;-84
2023/09/22 11:15:48;;;;;;;2.45;0.90;;;;;;;;;;4989475;28;94190;-84
2023/09/22 11:18:22;;;;;;;2.03;0.95;;;;;;;;;;4984083;28;94926;-85
2023/09/22 11:20:53;;;;;;;1.92;1.00;;;;;;;;;;4983951;28;93023;-84
2023/09/22 11:23:20;;;;;;;1.33;0.90;;;;;;;;;;4976837;28;92821;-84
2023/09/22 11:25:57;;;;;;;3.33;0.98;;;;;;;;;;4989643;28;92243;-85
2023/09/22 11:28:24;;;;;;;2.10;0.90;;;;;;;;;;4988237;28;92910;-82
2023/09/22 11:30:55;;;;;;;1.65;0.90;;;;;;;;;;4989107;28;93860;-83
2023/09/22 11:33:22;;;;;;;1.60;0.80;;;;;;;;;;4970318;28;94844;-83
2023/09/22 11:35:52;;;;;;;2.25;0.98;;;;;;;;;;4968448;28;97533;-83
2023/09/22 11:38:28;;;;;;;2.60;0.80;;;;;;;;;;4977482;28;93362;-82
2023/09/22 11:41:04;;;;;;;1.77;0.88;;;;;;;;;;4987312;28;92845;-82
2023/09/22 11:43:31;;;;;;;1.00;0.70;;;;;;;;;;4980913;28;93979;-83
2023/09/22 11:46:13;;;;;;;2.22;0.90;;;;;;;;;;4984406;28;94281;-84
2023/09/22 11:48:57;;;;;;;0.70;0.70;;;;;;;;;;4976122;28;92691;-83
2023/09/22 11:51:45;;;;;;;1.73;0.80;;;;;;;;;;4993078;28;92654;-83
2023/09/22 11:54:13;;;;;;;3.03;0.90;;;;;;;;;;4986935;28;92498;-84
2023/09/22 11:56:43;;;;;;;1.02;0.70;;;;;;;;;;4977899;28;92647;-84
2023/09/22 11:59:11;;;;;;;1.70;0.90;;;;;;;;;;4986468;28;95537;-84
2023/09/22 12:01:38;;;;;;;2.58;0.90;;;;;;;;;;4987668;28;92512;-84
2023/09/22 12:04:06;;;;;;;2.03;0.60;;;;;;;;;;4989224;28;92846;-84
2023/09/22 12:06:32;;;;;;;2.33;0.80;;;;;;;;;;4989759;28;93199;-84
2023/09/22 12:08:59;;;;;;;0.82;0.60;;;;;;;;;;4985672;28;92716;-84
2023/09/22 12:11:26;;;;;;;1.13;0.70;;;;;;;;;;4992556;28;92819;-84
2023/09/22 12:13:52;;;;;;;1.20;0.70;;;;;;;;;;4983620;28;92544;-85
2023/09/22 12:16:19;;;;;;;1.95;0.77;;;;;;;;;;4985089;28;96215;-84
2023/09/22 12:18:47;;;;;;;2.17;0.90;;;;;;;;;;4985285;28;92435;-84
2023/09/22 12:21:14;;;;;;;1.50;0.75;;;;;;;;;;4981872;28;93151;-85
2023/09/22 12:23:40;;;;;;;3.38;0.70;;;;;;;;;;4986546;28;95341;-84
2023/09/22 12:26:07;;;;;;;4.38;1.00;;;;;;;;;;4991882;28;93038;-83
2023/09/22 12:28:33;;;;;;;2.83;0.90;;;;;;;;;;4980909;28;92766;-84
2023/09/22 12:31:00;;;;;;;3.65;1.00;;;;;;;;;;4992456;28;92986;-84
2023/09/22 12:33:27;;;;;;;2.08;0.90;;;;;;;;;;4983714;28;93051;-84
2023/09/22 12:35:54;;;;;;;2.83;1.10;;;;;;;;;;4991367;28;92856;-84
2023/09/22 12:38:24;;;;;;;2.60;0.80;;;;;;;;;;4972516;28;93694;-83
2023/09/22 12:40:51;;;;;;;2.33;0.90;;;;;;;;;;4984390;28;92044;-82
2023/09/22 12:43:18;;;;;;;1.35;0.90;;;;;;;;;;4981419;28;92543;-83
2023/09/22 12:45:44;;;;;;;1.65;0.93;;;;;;;;;;4988528;28;93013;-83
2023/09/22 12:48:12;;;;;;;2.00;1.00;;;;;;;;;;4970880;28;95611;-83
2023/09/22 12:50:39;;;;;;;2.20;1.00;;;;;;;;;;4972052;28;95340;-83
2023/09/22 12:53:08;;;;;;;1.38;0.80;;;;;;;;;;4992691;28;93105;-83
2023/09/22 12:55:38;;;;;;;1.23;0.82;;;;;;;;;;4996380;28;92542;-83
2023/09/22 12:58:05;;;;;;;1.52;0.70;;;;;;;;;;4975577;28;94119;-82
2023/09/22 13:00:32;;;;;;;1.42;0.80;;;;;;;;;;4989975;28;93048;-83
2023/09/22 13:03:02;;;;;;;1.90;1.00;;;;;;;;;;4985814;28;92935;-83
2023/09/22 13:05:29;;;;;;;1.40;0.75;;;;;;;;;;4996988;28;92432;-83
2023/09/22 13:07:56;;;;;;;2.28;1.00;;;;;;;;;;4982102;28;92891;-84
2023/09/22 13:10:22;;;;;;;2.53;1.00;;;;;;;;;;4995829;28;92897;-83
2023/09/22 13:12:49;;;;;;;1.35;0.88;;;;;;;;;;4996322;28;95620;-83
2023/09/22 13:15:16;;;;;;;2.78;0.88;;;;;;;;;;4987985;28;92433;-84
2023/09/22 13:17:44;;;;;;;2.10;1.10;;;;;;;;;;4987864;28;93276;-82
2023/09/22 13:20:14;;;;;;;1.88;0.98;;;;;;;;;;4984656;28;92988;-83
2023/09/22 13:22:42;;;;;;;1.35;0.80;;;;;;;;;;4990596;28;92751;-84
2023/09/22 13:25:09;;;;;;;1.13;0.90;;;;;;;;;;4991006;28;92732;-82
2023/09/22 13:27:37;;;;;;;2.42;1.10;;;;;;;;;;4983317;28;92554;-83
2023/09/22 13:30:05;;;;;;;2.25;0.98;;;;;;;;;;4984729;28;93387;-83
2023/09/22 13:32:32;;;;;;;2.95;1.20;;;;;;;;;;4996538;28;96314;-83
2023/09/22 13:34:59;;;;;;;2.65;1.23;;;;;;;;;;4971233;28;92773;-83
2023/09/22 13:37:25;;;;;;;2.40;1.20;;;;;;;;;;4981251;28;94887;-83
2023/09/22 13:39:52;;;;;;;2.83;1.25;;;;;;;;;;4993879;28;93503;-83
2023/09/22 13:42:20;;;;;;;4.05;1.50;;;;;;;;;;4985795;28;93408;-83
2023/09/22 13:44:46;;;;;;;2.08;1.17;;;;;;;;;;4989141;28;92836;-83
2023/09/22 13:47:13;;;;;;;3.80;1.33;;;;;;;;;;4973343;28;93173;-83
2023/09/22 13:49:39;;;;;;;2.83;1.30;;;;;;;;;;4970847;28;92843;-83
2023/09/22 13:52:06;;;;;;;3.92;1.50;;;;;;;;;;4980510;28;94316;-82
2023/09/22 13:54:33;;;;;;;3.30;1.42;;;;;;;;;;4990587;28;91735;-83
2023/09/22 13:57:00;;;;;;;2.63;1.20;;;;;;;;;;4981186;28;92420;-82
2023/09/22 13:59:27;;;;;;;2.42;1.20;;;;;;;;;;4970412;28;95521;-83
2023/09/22 14:01:54;;;;;;;2.08;1.30;;;;;;;;;;4976281;28;95169;-82
2023/09/22 14:04:21;;;;;;;2.97;1.20;;;;;;;;;;4970213;28;93183;-83
2023/09/22 14:06:48;;;;;;;3.50;1.30;;;;;;;;;;4976811;28;92454;-83
2023/09/22 14:09:15;;;;;;;1.58;1.15;;;;;;;;;;4967750;28;95643;-83
2023/09/22 14:11:42;;;;;;;2.30;1.30;;;;;;;;;;4986324;28;93025;-83
2023/09/22 14:14:09;;;;;;;;;;;;;;;;;;4991361;28;92413;-83
2023/09/22 14:16:35;;;;;;;3.20;1.30;;;;;;;;;;4985729;28;98471;-83
2023/09/22 14:19:02;;;;;;;1.83;1.10;;;;;;;;;;4974287;28;92443;-83
2023/09/22 14:21:29;;;;;;;3.33;1.35;;;;;;;;;;4983108;28;92986;-83
2023/09/22 14:23:55;;;;;;;3.38;1.30;;;;;;;;;;4983906;28;93201;-83
2023/09/22 14:26:22;;;;;;;3.42;1.20;;;;;;;;;;4984932;28;94871;-83
2023/09/22 14:28:48;;;;;;;2.35;1.20;;;;;;;;;;4984443;28;96452;-83
2023/09/22 14:31:16;;;;;;;3.20;0.98;;;;;;;;;;4982619;28;93470;-83
2023/09/22 14:33:44;;;;;;;3.05;1.10;;;;;;;;;;4977125;28;93009;-83
2023/09/22 14:36:12;;;;;;;4.13;1.20;;;;;;;;;;4972652;28;92591;-82
2023/09/22 14:38:38;;;;;;;1.95;1.10;;;;;;;;;;4974266;28;93310;-82
2023/09/22 14:41:08;;;;;;;3.38;1.20;;;;;;;;;;4971677;28;92581;-83
2023/09/22 14:43:35;;;;;;;1.55;1.08;;;;;;;;;;4989522;28;93055;-84
2023/09/22 14:46:02;;;;;;;2.85;1.00;;;;;;;;;;4968843;28;92693;-83
2023/09/22 14:48:28;;;;;;;2.58;0.90;;;;;;;;;;4969612;28;92896;-84